Time;durP1;ratioP1;P1;durP2;ratioP2;P2;SDS_P1;SDS_P2;PMS_P1;PMS_P2;Temp;Humidity;BMP_temperature;BMP_pressure;BME280_temperature;BME280_humidity;BME280_pressure;Samples;Min_cycle;Max_cycle;Signal;HPM_P1;HPM_P2
2024/01/18 00:02:11;;;;;;;1.58;0.70;;;;;;;7.75;100.00;94487.41;5031819;28;20041;-61
2024/01/18 00:04:40;;;;;;;1.92;0.40;;;;;;;7.66;100.00;94489.19;5033081;28;20041;-62
2024/01/18 00:07:07;;;;;;;5.82;1.10;;;;;;;7.72;100.00;94501.47;5047062;28;20081;-60
2024/01/18 00:09:34;;;;;;;1.70;0.60;;;;;;;7.63;100.00;94512.16;5034529;28;20072;-61
2024/01/18 00:12:00;;;;;;;1.25;0.60;;;;;;;7.64;100.00;94500.28;5035595;28;20036;-61
2024/01/18 00:14:27;;;;;;;1.80;0.60;;;;;;;7.62;100.00;94501.69;5045590;28;20564;-61
2024/01/18 00:16:53;;;;;;;2.03;0.73;;;;;;;7.54;100.00;94513.97;5033334;28;20037;-61
2024/01/18 00:19:20;;;;;;;1.60;0.70;;;;;;;7.45;100.00;94499.63;5035725;28;20037;-61
2024/01/18 00:21:46;;;;;;;1.63;0.57;;;;;;;7.34;100.00;94496.38;5031682;28;20046;-61
2024/01/18 00:24:13;;;;;;;1.05;0.50;;;;;;;7.25;100.00;94504.34;5032807;28;20044;-60
2024/01/18 00:26:40;;;;;;;1.92;0.52;;;;;;;7.16;100.00;94501.59;5037998;28;20041;-61
2024/01/18 00:29:06;;;;;;;2.60;0.90;;;;;;;7.10;100.00;94495.50;5040747;28;20045;-61
2024/01/18 00:31:33;;;;;;;2.35;0.50;;;;;;;7.05;100.00;94501.00;5042467;28;20124;-60
2024/01/18 00:33:59;;;;;;;1.48;0.68;;;;;;;6.87;100.00;94502.69;5042683;28;20053;-60
2024/01/18 00:36:27;;;;;;;1.83;0.60;;;;;;;6.83;100.00;94515.94;5031979;28;20045;-60
2024/01/18 00:38:54;;;;;;;1.15;0.70;;;;;;;6.81;100.00;94512.75;5043168;28;20116;-60
2024/01/18 00:41:21;;;;;;;1.30;0.70;;;;;;;6.91;100.00;94517.13;5035966;28;20051;-60
2024/01/18 00:43:48;;;;;;;0.95;0.50;;;;;;;7.06;100.00;94509.84;5040969;28;20508;-60
2024/01/18 00:46:18;;;;;;;1.42;0.47;;;;;;;7.23;100.00;94522.72;5042532;28;20517;-61
2024/01/18 00:48:45;;;;;;;1.60;0.88;;;;;;;7.34;100.00;94532.16;5048748;28;20040;-60
2024/01/18 00:51:12;;;;;;;4.25;0.85;;;;;;;7.50;100.00;94529.94;5042215;28;20445;-61
2024/01/18 00:53:39;;;;;;;0.98;0.57;;;;;;;7.59;100.00;94521.94;5032246;28;20042;-61
2024/01/18 00:56:09;;;;;;;1.88;0.50;;;;;;;7.71;100.00;94528.69;5035296;28;20064;-61
2024/01/18 00:58:37;;;;;;;2.30;0.70;;;;;;;7.84;100.00;94527.84;5043991;28;20052;-61
2024/01/18 01:01:04;;;;;;;1.30;0.45;;;;;;;7.80;100.00;94529.56;5047889;28;20045;-60
2024/01/18 01:03:30;;;;;;;0.52;0.40;;;;;;;7.82;100.00;94532.75;5050135;28;20055;-60
2024/01/18 01:05:57;;;;;;;1.85;0.70;;;;;;;7.83;100.00;94528.97;5044474;28;20060;-60
2024/01/18 01:08:26;;;;;;;2.30;0.77;;;;;;;7.81;100.00;94539.22;5035706;28;20060;-60
2024/01/18 01:10:53;;;;;;;0.93;0.50;;;;;;;7.66;100.00;94530.41;5036503;28;20049;-60
2024/01/18 01:13:19;;;;;;;1.75;0.50;;;;;;;7.64;100.00;94535.31;5026126;28;20049;-61
2024/01/18 01:15:47;;;;;;;1.38;0.60;;;;;;;7.62;100.00;94528.59;5051390;28;20289;-60
2024/01/18 01:18:13;;;;;;;1.65;0.45;;;;;;;7.57;100.00;94540.31;5037194;28;20044;-60
2024/01/18 01:20:40;;;;;;;2.00;0.57;;;;;;;7.53;100.00;94547.38;5035089;28;20559;-60
2024/01/18 01:23:07;;;;;;;2.33;0.60;;;;;;;7.50;100.00;94543.41;5040387;28;20045;-61
2024/01/18 01:25:34;;;;;;;1.25;0.50;;;;;;;7.63;100.00;94551.75;5040169;28;20040;-61
2024/01/18 01:28:00;;;;;;;1.35;0.60;;;;;;;7.56;100.00;94533.31;5032837;28;20044;-62
2024/01/18 01:30:27;;;;;;;1.50;0.60;;;;;;;7.69;100.00;94537.06;5046802;28;20053;-61
2024/01/18 01:32:53;;;;;;;2.10;0.70;;;;;;;7.75;100.00;94537.75;5036140;28;20045;-62
2024/01/18 01:35:20;;;;;;;0.90;0.60;;;;;;;7.77;100.00;94535.53;5040964;28;20097;-61
2024/01/18 01:37:47;;;;;;;1.75;0.60;;;;;;;7.82;100.00;94532.75;5036630;28;20052;-61
2024/01/18 01:40:13;;;;;;;1.13;0.43;;;;;;;7.88;100.00;94530.72;5044717;28;20045;-61
2024/01/18 01:42:40;;;;;;;2.67;0.60;;;;;;;7.91;100.00;94530.13;5039881;28;20539;-60
2024/01/18 01:45:07;;;;;;;1.42;0.40;;;;;;;7.96;100.00;94526.53;5042269;28;20091;-61
2024/01/18 01:47:34;;;;;;;1.63;0.50;;;;;;;7.97;100.00;94522.72;5040153;28;20594;-60
2024/01/18 01:50:01;;;;;;;1.23;0.80;;;;;;;8.00;100.00;94520.19;5040212;28;20575;-61
2024/01/18 01:52:30;;;;;;;1.05;0.50;;;;;;;7.98;100.00;94519.72;5048529;28;20047;-61
2024/01/18 01:54:57;;;;;;;1.35;0.50;;;;;;;7.99;100.00;94525.91;5044061;28;20707;-61
2024/01/18 01:57:25;;;;;;;1.77;0.75;;;;;;;8.00;100.00;94527.50;5038893;28;20060;-62
2024/01/18 01:59:53;;;;;;;2.80;0.60;;;;;;;7.94;100.00;94534.91;5034530;28;20041;-60
2024/01/18 02:02:22;;;;;;;1.55;0.45;;;;;;;7.92;100.00;94529.81;5034065;28;20037;-61
2024/01/18 02:04:50;;;;;;;1.77;0.65;;;;;;;7.93;100.00;94530.63;5039379;28;20048;-61
2024/01/18 02:07:17;;;;;;;2.33;0.55;;;;;;;7.92;100.00;94537.09;5051560;28;20486;-61
2024/01/18 02:09:43;;;;;;;1.33;0.55;;;;;;;7.90;100.00;94533.91;5041493;28;20052;-60
2024/01/18 02:12:11;;;;;;;2.30;0.50;;;;;;;7.88;100.00;94539.59;5041302;28;20088;-60
2024/01/18 02:14:39;;;;;;;0.55;0.40;;;;;;;7.86;100.00;94549.91;5034649;28;20725;-60
2024/01/18 02:17:06;;;;;;;1.10;0.40;;;;;;;7.81;100.00;94553.50;5050273;28;20561;-59
2024/01/18 02:19:34;;;;;;;1.23;0.47;;;;;;;7.79;100.00;94547.63;5047114;28;20041;-61
2024/01/18 02:22:01;;;;;;;1.13;0.60;;;;;;;7.63;100.00;94554.47;5041381;28;20032;-61
2024/01/18 02:24:50;;;;;;;2.92;0.63;;;;;;;7.39;100.00;94558.16;5041139;28;20041;-60
2024/01/18 02:27:19;;;;;;;5.35;2.50;;;;;;;7.03;100.00;94562.38;5040963;28;20044;-60
2024/01/18 02:29:47;;;;;;;4.97;2.40;;;;;;;6.86;100.00;94571.81;5028538;28;20063;-61
2024/01/18 02:32:14;;;;;;;4.85;2.65;;;;;;;6.68;100.00;94578.88;5034893;28;20040;-61
2024/01/18 02:34:40;;;;;;;4.60;2.55;;;;;;;6.56;100.00;94581.25;5050526;28;20041;-60
2024/01/18 02:37:07;;;;;;;5.47;2.95;;;;;;;6.40;100.00;94583.38;5039381;28;20045;-60
2024/01/18 02:39:34;;;;;;;6.95;4.47;;;;;;;6.11;100.00;94585.97;5037430;28;20033;-61
2024/01/18 02:42:05;;;;;;;7.38;4.70;;;;;;;5.80;100.00;94597.13;5043156;28;20115;-61
2024/01/18 02:44:32;;;;;;;8.25;5.47;;;;;;;5.64;100.00;94606.47;5034085;28;20116;-60
2024/01/18 02:46:58;;;;;;;9.25;5.53;;;;;;;5.52;100.00;94605.00;5054459;28;20063;-61
2024/01/18 02:49:25;;;;;;;7.70;4.70;;;;;;;5.43;100.00;94591.44;5041823;28;20721;-60
2024/01/18 02:51:51;;;;;;;8.88;5.72;;;;;;;5.33;100.00;94597.72;5045727;28;20041;-61
2024/01/18 02:54:18;;;;;;;8.38;5.28;;;;;;;5.29;100.00;94606.63;5043644;28;20131;-62
2024/01/18 02:56:44;;;;;;;8.73;4.82;;;;;;;5.30;100.00;94621.63;5037872;28;20059;-61
2024/01/18 02:59:11;;;;;;;7.78;4.55;;;;;;;5.24;100.00;94612.06;5041981;28;20053;-61
2024/01/18 03:01:38;;;;;;;9.07;5.28;;;;;;;5.14;100.00;94613.78;5039218;28;20132;-62
2024/01/18 03:04:04;;;;;;;5.63;3.92;;;;;;;5.03;100.00;94618.44;5044357;28;20037;-60
2024/01/18 03:06:31;;;;;;;4.72;2.92;;;;;;;4.84;100.00;94593.44;5036898;28;20044;-62
2024/01/18 03:08:57;;;;;;;4.68;2.72;;;;;;;4.58;100.00;94588.31;5042473;28;20060;-61
2024/01/18 03:11:24;;;;;;;5.22;2.97;;;;;;;4.45;100.00;94585.22;5031471;28;20041;-61
2024/01/18 03:13:51;;;;;;;3.88;2.53;;;;;;;4.41;100.00;94587.69;5034114;28;20041;-60
2024/01/18 03:16:17;;;;;;;4.65;2.80;;;;;;;4.40;100.00;94588.75;5030303;28;20037;-61
2024/01/18 03:18:46;;;;;;;5.40;2.85;;;;;;;4.38;100.00;94588.22;5040733;28;20045;-61
2024/01/18 03:21:13;;;;;;;5.47;3.40;;;;;;;4.37;100.00;94596.53;5033520;28;20505;-60
2024/01/18 03:23:40;;;;;;;4.85;3.03;;;;;;;4.35;100.00;94598.72;5055150;28;20052;-61
2024/01/18 03:26:07;;;;;;;4.53;3.08;;;;;;;4.30;100.00;94594.19;5036947;28;20041;-61
2024/01/18 03:28:34;;;;;;;5.10;3.45;;;;;;;4.29;100.00;94596.09;5035856;28;20045;-61
2024/01/18 03:31:01;;;;;;;4.80;2.80;;;;;;;4.27;100.00;94598.22;5042023;28;20044;-60
2024/01/18 03:33:27;;;;;;;5.95;4.07;;;;;;;4.19;100.00;94598.81;5040387;28;20405;-61
2024/01/18 03:35:55;;;;;;;5.82;3.75;;;;;;;4.10;100.00;94601.31;5055524;28;20041;-60
2024/01/18 03:38:21;;;;;;;6.00;3.75;;;;;;;4.10;100.00;94611.22;5034944;28;20683;-59
2024/01/18 03:40:48;;;;;;;6.00;3.78;;;;;;;3.98;100.00;94596.28;5046678;28;20780;-60
2024/01/18 03:43:14;;;;;;;5.35;3.35;;;;;;;3.95;100.00;94604.91;5051832;28;20127;-61
2024/01/18 03:45:41;;;;;;;5.82;3.67;;;;;;;3.95;100.00;94610.25;5049811;28;20053;-61
2024/01/18 03:48:08;;;;;;;5.55;3.22;;;;;;;3.99;100.00;94610.50;5038773;28;20122;-60
2024/01/18 03:50:35;;;;;;;8.65;3.33;;;;;;;3.93;100.00;94604.38;5048204;28;20733;-60
2024/01/18 03:53:01;;;;;;;5.18;3.15;;;;;;;3.87;100.00;94621.56;5031088;28;20048;-60
2024/01/18 03:55:28;;;;;;;4.97;3.05;;;;;;;3.71;100.00;94628.84;5033646;28;20069;-60
2024/01/18 03:57:54;;;;;;;5.63;3.42;;;;;;;3.64;100.00;94613.09;5040595;28;20624;-59
2024/01/18 04:00:21;;;;;;;4.68;3.08;;;;;;;3.66;100.00;94605.59;5043182;28;20062;-60
2024/01/18 04:02:48;;;;;;;5.05;3.00;;;;;;;3.72;100.00;94603.72;5042721;28;20059;-60
2024/01/18 04:05:14;;;;;;;5.57;3.25;;;;;;;3.66;100.00;94600.25;5027128;28;20061;-60
2024/01/18 04:07:41;;;;;;;5.22;3.17;;;;;;;3.61;100.00;94603.75;5044588;28;20095;-61
2024/01/18 04:10:08;;;;;;;5.03;2.72;;;;;;;3.59;100.00;94597.88;5036787;28;20456;-61
2024/01/18 04:12:35;;;;;;;5.85;3.50;;;;;;;3.60;100.00;94598.66;5038300;28;20479;-60
2024/01/18 04:15:01;;;;;;;5.28;3.50;;;;;;;3.58;100.00;94593.59;5040004;28;20041;-60
2024/01/18 04:17:28;;;;;;;5.80;3.47;;;;;;;3.57;100.00;94592.00;5039068;28;20493;-60
2024/01/18 04:19:55;;;;;;;4.80;3.10;;;;;;;3.56;100.00;94586.91;5050879;28;20038;-61
2024/01/18 04:22:24;;;;;;;5.55;3.45;;;;;;;3.52;100.00;94592.03;5031285;28;20113;-62
2024/01/18 04:24:51;;;;;;;5.47;3.50;;;;;;;3.50;100.00;94594.16;5043973;28;20162;-61
2024/01/18 04:27:18;;;;;;;6.68;4.43;;;;;;;3.46;100.00;94588.56;5034366;28;20039;-61
2024/01/18 04:29:44;;;;;;;7.10;3.95;;;;;;;3.43;100.00;94591.00;5040138;28;20045;-61
2024/01/18 04:32:11;;;;;;;6.18;4.03;;;;;;;3.38;100.00;94592.63;5032707;28;20107;-60
2024/01/18 04:34:37;;;;;;;6.28;3.80;;;;;;;3.42;100.00;94589.41;5027205;28;20060;-61
2024/01/18 04:37:04;;;;;;;6.10;3.80;;;;;;;3.26;100.00;94581.44;5043231;28;20112;-61
2024/01/18 04:39:31;;;;;;;6.20;4.20;;;;;;;3.20;100.00;94580.66;5048566;28;20757;-60
2024/01/18 04:41:57;;;;;;;6.15;3.85;;;;;;;3.22;100.00;94594.59;5037184;28;20041;-60
2024/01/18 04:44:24;;;;;;;6.53;4.20;;;;;;;3.24;100.00;94586.25;5036093;28;20049;-61
2024/01/18 04:46:51;;;;;;;7.22;4.20;;;;;;;3.27;100.00;94590.28;5038772;28;20037;-60
2024/01/18 04:49:17;;;;;;;8.18;4.28;;;;;;;3.29;100.00;94598.81;5043882;28;20044;-61
2024/01/18 04:51:44;;;;;;;6.80;4.45;;;;;;;3.24;100.00;94592.41;5039730;28;20068;-60
2024/01/18 04:54:11;;;;;;;8.30;4.75;;;;;;;3.21;100.00;94592.97;5038086;28;20049;-61
2024/01/18 04:56:37;;;;;;;8.10;4.68;;;;;;;3.19;100.00;94589.78;5034104;28;20053;-61
2024/01/18 04:59:04;;;;;;;7.95;3.95;;;;;;;3.12;100.00;94594.59;5047508;28;20115;-60
2024/01/18 05:01:33;;;;;;;6.25;3.75;;;;;;;3.12;100.00;94606.09;5031154;28;20702;-60
2024/01/18 05:03:59;;;;;;;6.43;3.83;;;;;;;3.08;100.00;94594.34;5035745;28;20068;-60
2024/01/18 05:06:26;;;;;;;6.70;3.60;;;;;;;3.10;100.00;94602.09;5031353;28;20544;-60
2024/01/18 05:08:53;;;;;;;6.05;4.10;;;;;;;3.10;100.00;94607.47;5042090;28;20041;-60
2024/01/18 05:11:20;;;;;;;7.03;4.18;;;;;;;3.10;100.00;94612.81;5040216;28;20095;-61
2024/01/18 05:13:47;;;;;;;8.00;4.55;;;;;;;3.09;100.00;94613.84;5039669;28;20041;-61
2024/01/18 05:16:13;;;;;;;8.75;4.93;;;;;;;3.12;100.00;94622.16;5040489;28;20632;-60
2024/01/18 05:18:40;;;;;;;6.97;4.00;;;;;;;3.15;100.00;94620.81;5045157;28;20621;-62
2024/01/18 05:21:07;;;;;;;7.20;3.88;;;;;;;3.14;100.00;94629.09;5042211;28;20035;-62
2024/01/18 05:23:33;;;;;;;6.72;3.85;;;;;;;3.06;100.00;94625.13;5041679;28;20095;-63
2024/01/18 05:26:00;;;;;;;5.43;3.13;;;;;;;2.98;100.00;94619.25;5042558;28;20041;-62
2024/01/18 05:28:26;;;;;;;5.85;2.70;;;;;;;2.96;100.00;94625.94;5051507;28;20068;-62
2024/01/18 05:30:53;;;;;;;5.82;2.80;;;;;;;2.99;100.00;94636.09;5040471;28;20055;-62
2024/01/18 05:33:19;;;;;;;4.93;3.10;;;;;;;2.98;100.00;94632.59;5036535;28;20496;-62
2024/01/18 05:35:46;;;;;;;4.95;3.00;;;;;;;2.98;100.00;94631.78;5039074;28;20118;-62
2024/01/18 05:38:13;;;;;;;4.35;2.47;;;;;;;2.89;100.00;94644.13;5040629;28;20037;-62
2024/01/18 05:40:39;;;;;;;3.83;2.15;;;;;;;2.73;100.00;94631.59;5046634;28;20439;-62
2024/01/18 05:43:06;;;;;;;4.22;2.17;;;;;;;2.63;100.00;94642.28;5043134;28;20045;-62
2024/01/18 05:45:32;;;;;;;2.95;1.77;;;;;;;2.39;100.00;94645.50;5043640;28;20558;-62
2024/01/18 05:48:01;;;;;;;2.47;1.38;;;;;;;2.15;100.00;94648.72;5033167;28;20037;-62
2024/01/18 05:50:28;;;;;;;2.17;1.30;;;;;;;2.04;100.00;94649.75;5034205;28;20069;-63
2024/01/18 05:52:54;;;;;;;2.60;1.35;;;;;;;1.92;100.00;94644.66;5043410;28;20037;-62
2024/01/18 05:55:21;;;;;;;3.05;1.55;;;;;;;1.80;100.00;94648.38;5040628;28;20573;-63
2024/01/18 05:57:47;;;;;;;2.47;1.55;;;;;;;1.77;100.00;94651.56;5030908;28;20044;-62
2024/01/18 06:00:14;;;;;;;5.43;1.70;;;;;;;1.70;100.00;94656.38;5043296;28;20037;-62
2024/01/18 06:02:42;;;;;;;2.63;1.42;;;;;;;1.59;100.00;94655.53;5045936;28;20041;-62
2024/01/18 06:05:09;;;;;;;3.30;1.67;;;;;;;1.37;100.00;94645.84;5035326;28;20120;-63
2024/01/18 06:07:38;;;;;;;3.25;1.70;;;;;;;1.27;100.00;94648.47;5045508;28;20041;-62
2024/01/18 06:10:05;;;;;;;3.53;1.80;;;;;;;1.26;100.00;94655.66;5039690;28;20105;-62
2024/01/18 06:12:32;;;;;;;3.80;1.92;;;;;;;1.26;100.00;94660.19;5039600;28;20526;-62
2024/01/18 06:14:59;;;;;;;2.85;1.63;;;;;;;1.10;100.00;94646.78;5031672;28;20056;-63
2024/01/18 06:17:25;;;;;;;2.80;1.80;;;;;;;1.06;100.00;94648.38;5040753;28;20091;-62
2024/01/18 06:19:52;;;;;;;4.05;2.20;;;;;;;1.06;100.00;94658.25;5042425;28;20043;-62
2024/01/18 06:22:20;;;;;;;3.35;2.15;;;;;;;1.04;100.00;94647.84;5052762;28;20087;-63
2024/01/18 06:24:46;;;;;;;6.55;5.32;;;;;;;0.90;100.00;94644.81;5034714;28;20041;-62
2024/01/18 06:27:13;;;;;;;3.83;2.30;;;;;;;0.99;100.00;94651.25;5040203;28;20041;-62
2024/01/18 06:29:40;;;;;;;3.97;2.33;;;;;;;1.02;100.00;94649.94;5033485;28;20041;-62
2024/01/18 06:32:06;;;;;;;8.38;3.90;;;;;;;0.99;100.00;94643.28;5040301;28;20048;-62
2024/01/18 06:34:33;;;;;;;30.70;12.60;;;;;;;0.95;100.00;94644.84;5045311;28;20064;-62
2024/01/18 06:37:00;;;;;;;21.25;11.23;;;;;;;0.83;100.00;94650.38;5046981;28;20048;-63
2024/01/18 06:39:27;;;;;;;4.00;2.03;;;;;;;0.71;100.00;94644.44;5038043;28;20032;-62
2024/01/18 06:41:53;;;;;;;8.40;5.15;;;;;;;0.76;100.00;94658.59;5043813;28;20048;-62
2024/01/18 06:44:20;;;;;;;4.78;2.55;;;;;;;0.66;100.00;94652.41;5051155;28;20037;-62
2024/01/18 06:46:46;;;;;;;3.78;1.90;;;;;;;0.58;100.00;94651.81;5052428;28;20449;-62
2024/01/18 06:49:13;;;;;;;4.15;2.40;;;;;;;0.60;100.00;94655.03;5052754;28;20055;-62
2024/01/18 06:51:40;;;;;;;5.32;3.17;;;;;;;0.50;100.00;94633.66;5037158;28;20075;-62
2024/01/18 06:54:07;;;;;;;12.23;6.63;;;;;;;0.57;100.00;94636.09;5045664;28;20714;-62
2024/01/18 06:56:33;;;;;;;5.18;3.05;;;;;;;0.64;100.00;94642.00;5032800;28;20416;-62
2024/01/18 06:59:01;;;;;;;4.50;2.25;;;;;;;0.56;100.00;94631.81;5033793;28;20521;-62
2024/01/18 07:01:28;;;;;;;4.38;2.40;;;;;;;0.51;100.00;94637.91;5048187;28;20052;-62
2024/01/18 07:03:54;;;;;;;3.92;2.05;;;;;;;0.44;100.00;94632.03;5039702;28;21467;-64
2024/01/18 07:06:21;;;;;;;4.50;2.50;;;;;;;0.50;100.00;94645.13;5044449;28;20519;-62
2024/01/18 07:08:50;;;;;;;3.88;2.10;;;;;;;0.43;100.00;94649.03;5035350;28;20041;-62
2024/01/18 07:11:16;;;;;;;4.15;2.15;;;;;;;0.54;100.00;94660.56;5044608;28;20452;-62
2024/01/18 07:13:44;;;;;;;3.97;2.15;;;;;;;0.52;100.00;94658.16;5041611;28;20048;-62
2024/01/18 07:16:11;;;;;;;4.40;2.50;;;;;;;0.63;100.00;94672.38;5049015;28;20044;-62
2024/01/18 07:18:38;;;;;;;6.72;2.05;;;;;;;0.56;100.00;94656.59;5045625;28;20037;-63
2024/01/18 07:21:04;;;;;;;5.30;2.95;;;;;;;0.66;100.00;94679.81;5031599;28;20053;-63
2024/01/18 07:23:31;;;;;;;4.22;2.40;;;;;;;0.64;100.00;94680.09;5046839;28;20087;-63
2024/01/18 07:25:58;;;;;;;4.75;2.50;;;;;;;0.58;100.00;94670.44;5047625;28;20106;-63
2024/01/18 07:28:24;;;;;;;4.97;2.60;;;;;;;0.59;100.00;94669.38;5041444;28;20091;-63
2024/01/18 07:30:51;;;;;;;6.35;2.85;;;;;;;0.69;100.00;94679.31;5040571;28;20052;-63
2024/01/18 07:33:17;;;;;;;7.75;3.25;;;;;;;0.74;100.00;94689.22;5040497;28;20060;-63
2024/01/18 07:35:44;;;;;;;4.85;3.15;;;;;;;0.67;100.00;94683.28;5042053;28;20040;-63
2024/01/18 07:38:11;;;;;;;5.45;2.85;;;;;;;0.61;100.00;94661.97;5047120;28;20041;-63
2024/01/18 07:40:37;;;;;;;6.90;2.63;;;;;;;0.72;100.00;94689.47;5038366;28;20040;-65
2024/01/18 07:43:04;;;;;;;4.97;2.47;;;;;;;0.73;100.00;94699.06;5042298;28;20045;-62
2024/01/18 07:45:31;;;;;;;4.97;2.38;;;;;;;0.74;100.00;94697.22;5039148;28;20072;-65
2024/01/18 07:47:57;;;;;;;4.43;2.28;;;;;;;0.64;100.00;94695.25;5033952;28;20128;-65
2024/01/18 07:50:24;;;;;;;5.35;2.60;;;;;;;0.70;100.00;94712.09;5038120;28;20129;-65
2024/01/18 07:53:02;;;;;;;4.50;2.45;;;;;;;0.74;100.00;94713.19;5040695;28;20041;-65
2024/01/18 07:55:29;;;;;;;4.20;2.20;;;;;;;0.64;100.00;94700.59;5039243;28;20032;-65
2024/01/18 07:57:56;;;;;;;4.70;2.20;;;;;;;0.64;100.00;94700.59;5043177;28;20052;-65
2024/01/18 08:00:22;;;;;;;4.72;2.38;;;;;;;0.45;100.00;94694.84;5049870;28;20055;-65
2024/01/18 08:02:49;;;;;;;5.25;2.47;;;;;;;0.45;100.00;94700.19;5039057;28;20044;-64
2024/01/18 08:05:16;;;;;;;5.28;2.63;;;;;;;0.43;100.00;94699.59;5038632;28;20534;-63
2024/01/18 08:07:42;;;;;;;4.53;2.53;;;;;;;0.40;100.00;94706.25;5038053;28;20033;-63
2024/01/18 08:10:09;;;;;;;7.35;3.42;;;;;;;0.37;100.00;94715.53;5042233;28;20126;-65
2024/01/18 08:12:36;;;;;;;5.65;3.03;;;;;;;0.28;100.00;94702.94;5048970;28;20123;-62
2024/01/18 08:15:04;;;;;;;4.63;2.90;;;;;;;0.23;100.00;94712.50;5027064;28;20612;-63
2024/01/18 08:17:31;;;;;;;5.82;2.72;;;;;;;0.24;100.00;94698.16;5037468;28;20041;-69
2024/01/18 08:19:58;;;;;;;5.47;2.90;;;;;;;0.13;100.00;94709.75;5039511;28;20044;-70
2024/01/18 08:22:25;;;;;;;4.30;2.47;;;;;;;0.07;100.00;94700.13;5036454;28;20169;-66
2024/01/18 08:24:51;;;;;;;3.63;1.80;;;;;;;-0.03;100.00;94725.53;5033046;28;20508;-67
2024/01/18 08:27:18;;;;;;;3.95;1.98;;;;;;;-0.03;100.00;94712.25;5033611;28;20091;-67
2024/01/18 08:29:45;;;;;;;5.07;2.67;;;;;;;-0.05;100.00;94730.31;5050289;28;20133;-70
2024/01/18 08:32:11;;;;;;;3.88;2.10;;;;;;;0.10;100.00;94739.50;5045040;28;20056;-67
2024/01/18 08:34:38;;;;;;;4.07;2.05;;;;;;;-0.05;100.00;94732.97;5032416;28;20051;-69
2024/01/18 08:37:06;;;;;;;3.33;1.88;;;;;;;0.08;100.00;94739.75;5033709;28;20033;-70
2024/01/18 08:39:33;;;;;;;3.65;2.08;;;;;;;0.03;100.00;94736.25;5044394;28;20051;-71
2024/01/18 08:42:02;;;;;;;3.50;1.70;;;;;;;-0.06;100.00;94725.25;5031269;28;20467;-73
2024/01/18 08:44:29;;;;;;;3.28;1.88;;;;;;;-0.13;100.00;94733.41;5031148;28;20045;-69
2024/01/18 08:46:55;;;;;;;4.10;1.70;;;;;;;-0.11;100.00;94757.13;5038104;28;20041;-71
2024/01/18 08:49:24;;;;;;;6.60;2.20;;;;;;;-0.25;100.00;94751.38;5036959;28;20044;-63
2024/01/18 08:51:52;;;;;;;4.40;2.13;;;;;;;-0.42;100.00;94761.00;5040944;28;20071;-62
2024/01/18 08:54:20;;;;;;;3.78;2.28;;;;;;;-0.43;100.00;94764.72;5041686;28;20073;-63
2024/01/18 08:56:47;;;;;;;3.42;1.73;;;;;;;-0.32;100.00;94781.63;5035807;28;20040;-61
2024/01/18 08:59:13;;;;;;;3.97;1.98;;;;;;;-0.26;100.00;94803.72;5034820;28;20065;-63
2024/01/18 09:01:40;;;;;;;3.38;1.60;;;;;;;-0.36;100.00;94788.47;5039212;28;20470;-64
2024/01/18 09:04:07;;;;;;;3.83;1.67;;;;;;;-0.25;100.00;94802.72;5038324;28;20037;-63
2024/01/18 09:06:35;;;;;;;1.83;1.02;;;;;;;-0.32;100.00;94794.91;5051664;28;20053;-64
2024/01/18 09:09:02;;;;;;;2.10;1.20;;;;;;;-0.55;100.00;94798.59;5036563;28;20044;-63
2024/01/18 09:11:29;;;;;;;2.72;1.50;;;;;;;-0.57;100.00;94808.66;5035815;28;20044;-65
2024/01/18 09:13:55;;;;;;;2.58;1.02;;;;;;;-0.52;100.00;94808.72;5044639;28;20045;-63
2024/01/18 09:16:22;;;;;;;2.65;1.20;;;;;;;-0.58;100.00;94813.19;5031964;28;20764;-63
2024/01/18 09:18:48;;;;;;;3.70;1.30;;;;;;;-0.55;100.00;94827.84;5035901;28;20036;-62
2024/01/18 09:21:41;;;;;;;2.95;1.30;;;;;;;-0.60;100.00;94827.75;5034021;28;20044;-64
2024/01/18 09:24:08;;;;;;;2.65;1.17;;;;;;;-0.58;100.00;94831.78;5030068;28;20045;-65
2024/01/18 09:26:35;;;;;;;2.75;1.30;;;;;;;-0.58;100.00;94818.50;5042416;28;20530;-63
2024/01/18 09:29:02;;;;;;;2.67;1.40;;;;;;;-0.58;100.00;94830.97;5044791;28;20616;-64
2024/01/18 09:31:29;;;;;;;3.45;1.77;;;;;;;-0.68;100.00;94832.44;5043827;28;20120;-63
2024/01/18 09:34:08;;;;;;;3.67;1.80;;;;;;;-0.64;100.00;94840.72;5036018;28;20041;-64
2024/01/18 09:36:34;;;;;;;2.20;1.10;;;;;;;-0.71;100.00;94851.53;5038027;28;20048;-63
2024/01/18 09:39:01;;;;;;;1.75;1.02;;;;;;;-0.73;100.00;94863.44;5044194;28;20051;-63
2024/01/18 09:41:30;;;;;;;2.75;1.38;;;;;;;-0.59;100.00;94877.22;5034299;28;20045;-62
2024/01/18 09:44:03;;;;;;;2.90;1.35;;;;;;;-0.51;100.00;94898.06;5036608;28;20045;-63
2024/01/18 09:46:30;;;;;;;2.60;1.42;;;;;;;-0.63;100.00;94879.53;5048317;28;20091;-63
2024/01/18 09:48:57;;;;;;;4.63;1.67;;;;;;;-0.73;100.00;94876.72;5038127;28;20124;-63
2024/01/18 09:51:30;;;;;;;3.45;1.73;;;;;;;-0.71;100.00;94896.69;5030346;28;20053;-63
2024/01/18 09:54:00;;;;;;;2.58;1.30;;;;;;;-0.72;100.00;94918.19;5042975;28;20742;-63
2024/01/18 09:56:28;;;;;;;2.63;1.20;;;;;;;-0.71;100.00;94936.56;5034846;28;20051;-64
2024/01/18 09:58:55;;;;;;;2.75;1.48;;;;;;;-0.73;100.00;94951.13;5042944;28;20037;-63
2024/01/18 10:01:26;;;;;;;2.20;1.27;;;;;;;-0.71;100.00;94954.34;5033904;28;20041;-62
2024/01/18 10:03:54;;;;;;;2.30;1.20;;;;;;;-0.76;100.00;94948.94;5038743;28;20151;-62
2024/01/18 10:06:21;;;;;;;2.65;1.25;;;;;;;-0.69;100.00;94952.28;5038283;28;20048;-62
2024/01/18 10:08:49;;;;;;;2.60;1.50;;;;;;;-0.68;100.00;94972.47;5038247;28;20033;-64
2024/01/18 10:11:16;;;;;;;2.45;1.10;;;;;;;-0.69;100.00;94971.69;5048067;28;20130;-64
2024/01/18 10:13:54;;;;;;;2.05;1.00;;;;;;;-0.61;100.00;94965.16;5036869;28;20049;-64
2024/01/18 10:16:32;;;;;;;2.88;1.33;;;;;;;-0.59;100.00;94965.72;5044481;28;20505;-63
2024/01/18 10:19:00;;;;;;;2.47;1.08;;;;;;;-0.79;100.00;94956.38;5041203;28;20550;-64
2024/01/18 10:21:28;;;;;;;2.75;1.25;;;;;;;-0.82;100.00;94959.50;5042837;28;20418;-63
2024/01/18 10:23:55;;;;;;;3.63;1.63;;;;;;;-0.76;100.00;94971.03;5045268;28;20487;-63
2024/01/18 10:26:27;;;;;;;1.85;1.13;;;;;;;-0.75;100.00;94971.81;5040539;28;20063;-63
2024/01/18 10:28:53;;;;;;;3.13;1.35;;;;;;;-0.71;100.00;94996.88;5049706;28;20113;-64
2024/01/18 10:31:20;;;;;;;2.80;1.37;;;;;;;-0.72;100.00;95000.56;5034291;28;20123;-63
2024/01/18 10:33:47;;;;;;;2.35;1.30;;;;;;;-0.81;100.00;94992.19;5047913;28;20055;-64
2024/01/18 10:36:14;;;;;;;2.25;1.20;;;;;;;-0.81;100.00;95000.97;5054499;28;20541;-64
2024/01/18 10:38:41;;;;;;;3.55;1.60;;;;;;;-0.88;100.00;94989.69;5045296;28;20040;-64
2024/01/18 10:41:08;;;;;;;2.88;1.58;;;;;;;-0.91;100.00;95008.75;5039821;28;20127;-64
2024/01/18 10:43:35;;;;;;;2.50;1.17;;;;;;;-0.98;100.00;95011.56;5032055;28;20045;-64
2024/01/18 10:46:03;;;;;;;3.15;1.40;;;;;;;-0.99;100.00;95019.75;5046037;28;20056;-64
2024/01/18 10:48:31;;;;;;;2.78;1.30;;;;;;;-1.01;100.00;95038.59;5049853;28;20040;-64
2024/01/18 10:50:58;;;;;;;2.50;1.27;;;;;;;-0.94;100.00;95047.22;5033119;28;20057;-62
2024/01/18 10:53:38;;;;;;;3.65;1.70;;;;;;;-0.97;100.00;95044.22;5033133;28;20048;-63
2024/01/18 10:56:04;;;;;;;3.20;1.55;;;;;;;-1.01;100.00;95043.91;5043486;28;20539;-63
2024/01/18 10:58:31;;;;;;;1.88;1.17;;;;;;;-0.94;100.00;95052.53;5038551;28;20051;-63
2024/01/18 11:00:58;;;;;;;2.45;1.48;;;;;;;-0.88;100.00;95061.44;5035816;28;20643;-62
2024/01/18 11:03:27;;;;;;;3.83;1.88;;;;;;;-1.01;100.00;95054.53;5039278;28;20052;-62
2024/01/18 11:05:53;;;;;;;2.97;1.60;;;;;;;-1.00;100.00;95065.97;5035752;28;20033;-63
2024/01/18 11:08:21;;;;;;;3.00;1.58;;;;;;;-1.01;100.00;95053.72;5032595;28;20067;-63
2024/01/18 11:10:48;;;;;;;3.90;2.20;;;;;;;-1.00;100.00;95063.31;5033129;28;20045;-63
2024/01/18 11:13:15;;;;;;;3.17;2.08;;;;;;;-1.07;100.00;95063.44;5043976;28;20055;-64
2024/01/18 11:15:44;;;;;;;4.10;2.30;;;;;;;-0.90;100.00;95068.81;5034272;28;20566;-63
2024/01/18 11:18:12;;;;;;;4.05;2.40;;;;;;;-1.20;100.00;95073.28;5034386;28;20041;-64
2024/01/18 11:20:57;;;;;;;5.63;2.60;;;;;;;-1.17;100.00;95087.94;5034226;28;20521;-67
2024/01/18 11:23:28;;;;;;;4.35;2.47;;;;;;;-1.13;100.00;95104.22;5035638;28;20412;-64
2024/01/18 11:25:55;;;;;;;4.13;2.30;;;;;;;-1.10;100.00;95087.81;5041584;28;20041;-65
2024/01/18 11:28:26;;;;;;;4.47;2.40;;;;;;;-1.09;100.00;95097.38;5038138;28;20408;-64
2024/01/18 11:30:53;;;;;;;4.82;2.92;;;;;;;-1.00;100.00;95095.19;5040321;28;20041;-62
2024/01/18 11:33:20;;;;;;;5.07;3.22;;;;;;;-0.90;100.00;95107.84;5035669;28;20828;-60